sensor_id;sensor_type;location;lat;lon;timestamp;pressure;altitude;pressure_sealevel;temperature;humidity
20930;BME280;21895;47.072;15.132;2023-03-15T00:01:45;95525.00;;;10.39;35.16
20930;BME280;21895;47.072;15.132;2023-03-15T00:04:13;95522.00;;;10.32;34.67
20930;BME280;21895;47.072;15.132;2023-03-15T00:06:39;95530.00;;;10.37;35.08
20930;BME280;21895;47.072;15.132;2023-03-15T00:09:06;95528.00;;;10.46;34.29
20930;BME280;21895;47.072;15.132;2023-03-15T00:11:32;95532.00;;;10.45;34.47
20930;BME280;21895;47.072;15.132;2023-03-15T00:14:00;95539.00;;;10.38;35.10
20930;BME280;21895;47.072;15.132;2023-03-15T00:16:28;95546.00;;;10.44;34.74
20930;BME280;21895;47.072;15.132;2023-03-15T00:18:55;95536.00;;;10.51;35.68
20930;BME280;21895;47.072;15.132;2023-03-15T00:21:22;95544.00;;;10.60;34.90
20930;BME280;21895;47.072;15.132;2023-03-15T00:23:49;95537.00;;;10.52;34.61
20930;BME280;21895;47.072;15.132;2023-03-15T00:26:16;95546.00;;;10.37;34.47
20930;BME280;21895;47.072;15.132;2023-03-15T00:28:43;95532.00;;;10.03;35.68
20930;BME280;21895;47.072;15.132;2023-03-15T00:33:52;95539.00;;;10.14;34.74
20930;BME280;21895;47.072;15.132;2023-03-15T00:36:20;95541.00;;;9.93;35.43
20930;BME280;21895;47.072;15.132;2023-03-15T00:38:52;95552.00;;;10.02;35.56
20930;BME280;21895;47.072;15.132;2023-03-15T00:41:21;95558.00;;;10.11;35.39
20930;BME280;21895;47.072;15.132;2023-03-15T00:43:49;95568.00;;;10.31;35.77
20930;BME280;21895;47.072;15.132;2023-03-15T00:46:18;95553.00;;;10.16;35.14
20930;BME280;21895;47.072;15.132;2023-03-15T00:48:48;95553.00;;;10.25;35.59
20930;BME280;21895;47.072;15.132;2023-03-15T00:51:20;95562.00;;;10.32;34.45
20930;BME280;21895;47.072;15.132;2023-03-15T00:53:49;95560.00;;;10.31;35.13
20930;BME280;21895;47.072;15.132;2023-03-15T00:56:25;95566.00;;;10.16;34.93
20930;BME280;21895;47.072;15.132;2023-03-15T00:58:52;95574.00;;;10.23;35.83
20930;BME280;21895;47.072;15.132;2023-03-15T01:01:24;95575.00;;;9.95;34.99
20930;BME280;21895;47.072;15.132;2023-03-15T01:03:51;95598.00;;;10.03;35.61
20930;BME280;21895;47.072;15.132;2023-03-15T01:06:22;95578.00;;;9.90;35.55
20930;BME280;21895;47.072;15.132;2023-03-15T01:08:49;95601.00;;;9.84;36.12
20930;BME280;21895;47.072;15.132;2023-03-15T01:11:20;95599.00;;;9.86;36.18
20930;BME280;21895;47.072;15.132;2023-03-15T01:13:51;95600.00;;;9.84;36.29
20930;BME280;21895;47.072;15.132;2023-03-15T01:16:19;95587.00;;;10.06;36.14
20930;BME280;21895;47.072;15.132;2023-03-15T01:18:46;95599.00;;;10.02;35.80
20930;BME280;21895;47.072;15.132;2023-03-15T01:21:14;95597.00;;;10.09;35.90
20930;BME280;21895;47.072;15.132;2023-03-15T01:23:41;95588.00;;;10.03;35.77
20930;BME280;21895;47.072;15.132;2023-03-15T01:26:11;95615.00;;;10.15;35.39
20930;BME280;21895;47.072;15.132;2023-03-15T01:28:39;95599.00;;;10.00;35.44
20930;BME280;21895;47.072;15.132;2023-03-15T01:31:07;95616.00;;;9.87;36.12
20930;BME280;21895;47.072;15.132;2023-03-15T01:33:35;95593.00;;;9.84;36.03
20930;BME280;21895;47.072;15.132;2023-03-15T01:36:06;95608.00;;;10.08;36.13
20930;BME280;21895;47.072;15.132;2023-03-15T01:38:33;95610.00;;;10.07;36.14
20930;BME280;21895;47.072;15.132;2023-03-15T01:41:00;95604.00;;;10.00;35.85
20930;BME280;21895;47.072;15.132;2023-03-15T01:43:29;95603.00;;;9.92;36.35
20930;BME280;21895;47.072;15.132;2023-03-15T01:46:26;95600.00;;;10.01;35.88
20930;BME280;21895;47.072;15.132;2023-03-15T01:49:31;95616.00;;;10.19;36.42
20930;BME280;21895;47.072;15.132;2023-03-15T01:52:09;95604.00;;;10.12;36.19
20930;BME280;21895;47.072;15.132;2023-03-15T01:55:08;95605.00;;;10.15;36.29
20930;BME280;21895;47.072;15.132;2023-03-15T01:58:03;95603.00;;;9.89;36.27
20930;BME280;21895;47.072;15.132;2023-03-15T02:00:33;95614.00;;;9.98;37.18
20930;BME280;21895;47.072;15.132;2023-03-15T02:03:17;95604.00;;;9.96;36.72
20930;BME280;21895;47.072;15.132;2023-03-15T02:05:57;95608.00;;;10.09;36.90
20930;BME280;21895;47.072;15.132;2023-03-15T02:08:30;95615.00;;;10.13;37.11
20930;BME280;21895;47.072;15.132;2023-03-15T02:11:02;95622.00;;;9.98;37.13
20930;BME280;21895;47.072;15.132;2023-03-15T02:13:31;95602.00;;;9.72;37.23
20930;BME280;21895;47.072;15.132;2023-03-15T02:15:59;95604.00;;;9.91;36.69
20930;BME280;21895;47.072;15.132;2023-03-15T02:18:26;95587.00;;;9.99;37.19
20930;BME280;21895;47.072;15.132;2023-03-15T02:22:00;95598.00;;;10.02;37.00
20930;BME280;21895;47.072;15.132;2023-03-15T02:26:19;95603.00;;;9.99;36.92
20930;BME280;21895;47.072;15.132;2023-03-15T02:28:48;95601.00;;;9.66;37.87
20930;BME280;21895;47.072;15.132;2023-03-15T02:31:15;95600.00;;;9.65;37.19
20930;BME280;21895;47.072;15.132;2023-03-15T02:33:46;95603.00;;;9.48;37.26
20930;BME280;21895;47.072;15.132;2023-03-15T02:36:20;95605.00;;;9.63;37.00
20930;BME280;21895;47.072;15.132;2023-03-15T02:38:48;95601.00;;;9.59;37.37
20930;BME280;21895;47.072;15.132;2023-03-15T02:41:20;95603.00;;;9.77;37.69
20930;BME280;21895;47.072;15.132;2023-03-15T02:43:54;95611.00;;;9.75;37.04
20930;BME280;21895;47.072;15.132;2023-03-15T02:46:23;95616.00;;;9.80;37.27
20930;BME280;21895;47.072;15.132;2023-03-15T02:48:52;95607.00;;;9.73;37.39
20930;BME280;21895;47.072;15.132;2023-03-15T02:51:22;95605.00;;;9.70;36.79
20930;BME280;21895;47.072;15.132;2023-03-15T02:53:49;95622.00;;;9.53;37.16
20930;BME280;21895;47.072;15.132;2023-03-15T02:56:16;95621.00;;;9.66;36.67
20930;BME280;21895;47.072;15.132;2023-03-15T02:58:43;95630.00;;;9.69;37.16
20930;BME280;21895;47.072;15.132;2023-03-15T03:01:14;95628.00;;;9.76;37.03
20930;BME280;21895;47.072;15.132;2023-03-15T03:03:43;95622.00;;;9.57;37.86
20930;BME280;21895;47.072;15.132;2023-03-15T03:06:13;95622.00;;;9.53;36.75
20930;BME280;21895;47.072;15.132;2023-03-15T03:08:40;95637.00;;;9.80;36.91
20930;BME280;21895;47.072;15.132;2023-03-15T03:11:07;95639.00;;;9.88;37.84
20930;BME280;21895;47.072;15.132;2023-03-15T03:13:33;95634.00;;;9.87;37.25
20930;BME280;21895;47.072;15.132;2023-03-15T03:16:00;95637.00;;;9.90;36.32
20930;BME280;21895;47.072;15.132;2023-03-15T03:18:28;95647.00;;;9.81;36.39
20930;BME280;21895;47.072;15.132;2023-03-15T03:20:56;95653.00;;;9.87;36.65
20930;BME280;21895;47.072;15.132;2023-03-15T03:23:25;95663.00;;;9.51;37.39
20930;BME280;21895;47.072;15.132;2023-03-15T03:25:56;95656.00;;;9.51;37.44
20930;BME280;21895;47.072;15.132;2023-03-15T03:28:28;95667.00;;;9.60;37.03
20930;BME280;21895;47.072;15.132;2023-03-15T03:30:55;95668.00;;;9.59;37.37
20930;BME280;21895;47.072;15.132;2023-03-15T03:33:24;95657.00;;;9.66;37.74
20930;BME280;21895;47.072;15.132;2023-03-15T03:35:51;95673.00;;;9.65;37.18
20930;BME280;21895;47.072;15.132;2023-03-15T03:38:19;95681.00;;;9.84;37.13
20930;BME280;21895;47.072;15.132;2023-03-15T03:40:45;95686.00;;;9.49;36.78
20930;BME280;21895;47.072;15.132;2023-03-15T03:43:12;95685.00;;;9.66;37.29
20930;BME280;21895;47.072;15.132;2023-03-15T03:45:40;95689.00;;;9.52;36.81
20930;BME280;21895;47.072;15.132;2023-03-15T03:48:07;95690.00;;;9.38;37.16
20930;BME280;21895;47.072;15.132;2023-03-15T03:50:34;95695.00;;;9.56;37.02
20930;BME280;21895;47.072;15.132;2023-03-15T03:53:00;95690.00;;;9.39;36.32
20930;BME280;21895;47.072;15.132;2023-03-15T03:55:27;95701.00;;;9.50;36.84
20930;BME280;21895;47.072;15.132;2023-03-15T03:57:53;95693.00;;;9.36;37.26
20930;BME280;21895;47.072;15.132;2023-03-15T04:00:20;95702.00;;;9.38;36.96
20930;BME280;21895;47.072;15.132;2023-03-15T04:02:46;95696.00;;;9.21;37.55
20930;BME280;21895;47.072;15.132;2023-03-15T04:05:13;95703.00;;;9.43;36.92
20930;BME280;21895;47.072;15.132;2023-03-15T04:07:40;95708.00;;;9.56;36.83
20930;BME280;21895;47.072;15.132;2023-03-15T04:10:07;95702.00;;;9.65;36.95
20930;BME280;21895;47.072;15.132;2023-03-15T04:12:34;95701.00;;;9.55;37.27
20930;BME280;21895;47.072;15.132;2023-03-15T04:15:01;95710.00;;;9.52;36.34
20930;BME280;21895;47.072;15.132;2023-03-15T04:17:27;95712.00;;;9.63;36.47
20930;BME280;21895;47.072;15.132;2023-03-15T04:19:54;95711.00;;;9.66;37.04
20930;BME280;21895;47.072;15.132;2023-03-15T04:22:21;95705.00;;;9.44;36.59
20930;BME280;21895;47.072;15.132;2023-03-15T04:24:47;95711.00;;;9.46;37.12
20930;BME280;21895;47.072;15.132;2023-03-15T04:27:15;95711.00;;;9.33;37.38
20930;BME280;21895;47.072;15.132;2023-03-15T04:29:42;95706.00;;;9.43;37.47
20930;BME280;21895;47.072;15.132;2023-03-15T04:32:09;95717.00;;;9.36;37.23
20930;BME280;21895;47.072;15.132;2023-03-15T04:34:36;95704.00;;;9.40;37.15
20930;BME280;21895;47.072;15.132;2023-03-15T04:37:05;95703.00;;;9.32;37.39
20930;BME280;21895;47.072;15.132;2023-03-15T04:39:31;95713.00;;;9.32;37.37
20930;BME280;21895;47.072;15.132;2023-03-15T04:41:58;95713.00;;;9.37;37.38
20930;BME280;21895;47.072;15.132;2023-03-15T04:44:24;95737.00;;;9.32;37.22
20930;BME280;21895;47.072;15.132;2023-03-15T04:46:53;95720.00;;;9.31;37.26
20930;BME280;21895;47.072;15.132;2023-03-15T04:49:20;95726.00;;;9.45;37.03
20930;BME280;21895;47.072;15.132;2023-03-15T04:51:47;95713.00;;;9.35;37.21
20930;BME280;21895;47.072;15.132;2023-03-15T04:54:13;95713.00;;;9.31;37.43
20930;BME280;21895;47.072;15.132;2023-03-15T04:56:40;95718.00;;;9.44;37.45
20930;BME280;21895;47.072;15.132;2023-03-15T04:59:07;95720.00;;;9.63;37.40
20930;BME280;21895;47.072;15.132;2023-03-15T05:01:36;95729.00;;;9.68;36.73
20930;BME280;21895;47.072;15.132;2023-03-15T05:04:02;95729.00;;;9.79;36.63
20930;BME280;21895;47.072;15.132;2023-03-15T05:06:29;95729.00;;;9.58;37.80
20930;BME280;21895;47.072;15.132;2023-03-15T05:08:55;95731.00;;;9.67;37.80
20930;BME280;21895;47.072;15.132;2023-03-15T05:11:22;95739.00;;;9.71;38.04
20930;BME280;21895;47.072;15.132;2023-03-15T05:13:48;95738.00;;;9.61;38.10
20930;BME280;21895;47.072;15.132;2023-03-15T05:16:15;95741.00;;;9.61;37.99
20930;BME280;21895;47.072;15.132;2023-03-15T05:18:42;95751.00;;;9.91;37.35
20930;BME280;21895;47.072;15.132;2023-03-15T05:21:11;95746.00;;;9.80;38.43
20930;BME280;21895;47.072;15.132;2023-03-15T05:23:38;95758.00;;;9.83;38.70
20930;BME280;21895;47.072;15.132;2023-03-15T05:26:05;95769.00;;;9.62;39.62
20930;BME280;21895;47.072;15.132;2023-03-15T05:28:31;95773.00;;;9.55;40.44
20930;BME280;21895;47.072;15.132;2023-03-15T05:30:58;95775.00;;;9.60;39.70
20930;BME280;21895;47.072;15.132;2023-03-15T05:33:26;95779.00;;;9.62;39.52
20930;BME280;21895;47.072;15.132;2023-03-15T05:35:53;95782.00;;;9.65;39.75
20930;BME280;21895;47.072;15.132;2023-03-15T05:38:21;95776.00;;;9.70;40.28
20930;BME280;21895;47.072;15.132;2023-03-15T05:40:52;95779.00;;;9.62;40.84
20930;BME280;21895;47.072;15.132;2023-03-15T05:43:20;95782.00;;;9.49;39.42
20930;BME280;21895;47.072;15.132;2023-03-15T05:45:46;95783.00;;;9.41;39.21
20930;BME280;21895;47.072;15.132;2023-03-15T05:48:14;95786.00;;;9.45;39.04
20930;BME280;21895;47.072;15.132;2023-03-15T05:50:41;95795.00;;;9.50;39.21
20930;BME280;21895;47.072;15.132;2023-03-15T05:53:08;95802.00;;;9.31;40.12
20930;BME280;21895;47.072;15.132;2023-03-15T05:55:34;95814.00;;;9.44;39.51
20930;BME280;21895;47.072;15.132;2023-03-15T05:58:02;95816.00;;;9.38;39.65
20930;BME280;21895;47.072;15.132;2023-03-15T06:00:28;95817.00;;;9.31;40.01
20930;BME280;21895;47.072;15.132;2023-03-15T06:02:55;95836.00;;;9.24;40.81
20930;BME280;21895;47.072;15.132;2023-03-15T06:05:22;95825.00;;;9.24;41.03
20930;BME280;21895;47.072;15.132;2023-03-15T06:07:48;95830.00;;;9.27;40.83
20930;BME280;21895;47.072;15.132;2023-03-15T06:10:15;95841.00;;;9.41;41.75
20930;BME280;21895;47.072;15.132;2023-03-15T06:12:42;95844.00;;;9.68;40.94
20930;BME280;21895;47.072;15.132;2023-03-15T06:15:10;95851.00;;;9.59;40.76
20930;BME280;21895;47.072;15.132;2023-03-15T06:17:37;95861.00;;;9.72;41.19
20930;BME280;21895;47.072;15.132;2023-03-15T06:20:04;95870.00;;;9.59;41.58
20930;BME280;21895;47.072;15.132;2023-03-15T06:22:31;95872.00;;;9.60;41.47
20930;BME280;21895;47.072;15.132;2023-03-15T06:24:57;95868.00;;;9.55;41.27
20930;BME280;21895;47.072;15.132;2023-03-15T06:27:24;95866.00;;;9.61;41.80
20930;BME280;21895;47.072;15.132;2023-03-15T06:29:50;95890.00;;;9.76;42.16
20930;BME280;21895;47.072;15.132;2023-03-15T06:32:17;95893.00;;;9.87;41.79
20930;BME280;21895;47.072;15.132;2023-03-15T06:34:43;95902.00;;;9.84;41.78
20930;BME280;21895;47.072;15.132;2023-03-15T06:37:10;95906.00;;;9.82;41.73
20930;BME280;21895;47.072;15.132;2023-03-15T06:39:43;95912.00;;;9.75;42.41
20930;BME280;21895;47.072;15.132;2023-03-15T06:42:11;95911.00;;;9.88;41.79
20930;BME280;21895;47.072;15.132;2023-03-15T06:44:39;95919.00;;;9.98;42.53
20930;BME280;21895;47.072;15.132;2023-03-15T06:47:08;95926.00;;;9.73;42.65
20930;BME280;21895;47.072;15.132;2023-03-15T06:49:35;95921.00;;;9.54;42.90
20930;BME280;21895;47.072;15.132;2023-03-15T06:52:03;95929.00;;;9.62;43.21
20930;BME280;21895;47.072;15.132;2023-03-15T06:54:30;95919.00;;;9.65;43.83
20930;BME280;21895;47.072;15.132;2023-03-15T06:56:57;95928.00;;;9.75;43.90
20930;BME280;21895;47.072;15.132;2023-03-15T06:59:24;95928.00;;;9.79;43.78
20930;BME280;21895;47.072;15.132;2023-03-15T07:01:50;95934.00;;;9.86;43.76
20930;BME280;21895;47.072;15.132;2023-03-15T07:04:17;95932.00;;;9.95;43.60
20930;BME280;21895;47.072;15.132;2023-03-15T07:06:44;95936.00;;;10.01;43.66
20930;BME280;21895;47.072;15.132;2023-03-15T07:09:10;95944.00;;;10.17;42.90
20930;BME280;21895;47.072;15.132;2023-03-15T07:11:37;95949.00;;;10.27;42.57
20930;BME280;21895;47.072;15.132;2023-03-15T07:14:03;95955.00;;;10.08;42.85
20930;BME280;21895;47.072;15.132;2023-03-15T07:16:31;95964.00;;;10.02;43.32
20930;BME280;21895;47.072;15.132;2023-03-15T07:18:57;95968.00;;;10.17;43.14
20930;BME280;21895;47.072;15.132;2023-03-15T07:21:26;95979.00;;;10.26;43.06
20930;BME280;21895;47.072;15.132;2023-03-15T07:23:52;95976.00;;;10.41;42.99
20930;BME280;21895;47.072;15.132;2023-03-15T07:26:19;95984.00;;;10.31;43.21
20930;BME280;21895;47.072;15.132;2023-03-15T07:28:46;95983.00;;;10.25;43.02
20930;BME280;21895;47.072;15.132;2023-03-15T07:31:12;95993.00;;;10.47;42.68
20930;BME280;21895;47.072;15.132;2023-03-15T07:33:39;96002.00;;;10.64;42.35
20930;BME280;21895;47.072;15.132;2023-03-15T07:36:07;96005.00;;;10.68;41.55
20930;BME280;21895;47.072;15.132;2023-03-15T07:38:34;96006.00;;;10.75;41.81
20930;BME280;21895;47.072;15.132;2023-03-15T07:41:02;96015.00;;;10.98;41.62
20930;BME280;21895;47.072;15.132;2023-03-15T07:43:30;96021.00;;;10.88;41.91
20930;BME280;21895;47.072;15.132;2023-03-15T07:45:56;96013.00;;;10.90;40.98
20930;BME280;21895;47.072;15.132;2023-03-15T07:48:23;96025.00;;;10.85;41.01
20930;BME280;21895;47.072;15.132;2023-03-15T07:50:49;96023.00;;;10.94;41.38
20930;BME280;21895;47.072;15.132;2023-03-15T07:53:16;96021.00;;;11.00;41.76
20930;BME280;21895;47.072;15.132;2023-03-15T07:55:47;96021.00;;;11.34;40.09
20930;BME280;21895;47.072;15.132;2023-03-15T07:58:14;96030.00;;;11.28;39.99
20930;BME280;21895;47.072;15.132;2023-03-15T08:00:41;96031.00;;;11.09;40.55
20930;BME280;21895;47.072;15.132;2023-03-15T08:03:08;96035.00;;;11.22;40.31
20930;BME280;21895;47.072;15.132;2023-03-15T08:05:36;96040.00;;;11.10;40.58
20930;BME280;21895;47.072;15.132;2023-03-15T08:08:03;96042.00;;;10.91;41.49
20930;BME280;21895;47.072;15.132;2023-03-15T08:10:31;96041.00;;;11.01;40.89
20930;BME280;21895;47.072;15.132;2023-03-15T08:12:58;96040.00;;;10.83;40.33
20930;BME280;21895;47.072;15.132;2023-03-15T08:15:25;96056.00;;;10.46;41.09
20930;BME280;21895;47.072;15.132;2023-03-15T08:17:51;96054.00;;;9.84;43.09
20930;BME280;21895;47.072;15.132;2023-03-15T08:20:18;96049.00;;;9.46;44.94
20930;BME280;21895;47.072;15.132;2023-03-15T08:22:49;96058.00;;;9.36;44.65
20930;BME280;21895;47.072;15.132;2023-03-15T08:25:21;96062.00;;;9.29;45.11
20930;BME280;21895;47.072;15.132;2023-03-15T08:27:49;96056.00;;;9.29;45.58
20930;BME280;21895;47.072;15.132;2023-03-15T08:30:17;96065.00;;;9.24;45.66
20930;BME280;21895;47.072;15.132;2023-03-15T08:32:46;96071.00;;;9.23;46.25
20930;BME280;21895;47.072;15.132;2023-03-15T08:35:16;96064.00;;;9.20;46.37
20930;BME280;21895;47.072;15.132;2023-03-15T08:37:43;96063.00;;;9.39;46.15
20930;BME280;21895;47.072;15.132;2023-03-15T08:40:18;96066.00;;;9.46;46.89
20930;BME280;21895;47.072;15.132;2023-03-15T08:42:52;96067.00;;;9.76;47.20
20930;BME280;21895;47.072;15.132;2023-03-15T08:45:19;96079.00;;;10.07;45.00
20930;BME280;21895;47.072;15.132;2023-03-15T08:47:46;96079.00;;;9.88;43.85
20930;BME280;21895;47.072;15.132;2023-03-15T08:50:14;96085.00;;;10.04;44.55
20930;BME280;21895;47.072;15.132;2023-03-15T08:52:42;96083.00;;;10.36;44.06
20930;BME280;21895;47.072;15.132;2023-03-15T08:55:09;96084.00;;;10.69;43.57
20930;BME280;21895;47.072;15.132;2023-03-15T08:57:40;96082.00;;;10.42;43.25
20930;BME280;21895;47.072;15.132;2023-03-15T09:00:09;96076.00;;;10.59;42.27
20930;BME280;21895;47.072;15.132;2023-03-15T09:02:57;96085.00;;;10.91;40.69
20930;BME280;21895;47.072;15.132;2023-03-15T09:05:24;96078.00;;;11.22;37.95
20930;BME280;21895;47.072;15.132;2023-03-15T09:07:51;96085.00;;;11.45;38.08
20930;BME280;21895;47.072;15.132;2023-03-15T09:10:18;96102.00;;;11.29;36.40
20930;BME280;21895;47.072;15.132;2023-03-15T09:12:49;96098.00;;;10.49;39.14
20930;BME280;21895;47.072;15.132;2023-03-15T09:15:16;96109.00;;;10.76;38.15
20930;BME280;21895;47.072;15.132;2023-03-15T09:17:43;96106.00;;;10.84;38.03
20930;BME280;21895;47.072;15.132;2023-03-15T09:20:12;96108.00;;;11.16;37.23
20930;BME280;21895;47.072;15.132;2023-03-15T09:22:50;96110.00;;;11.04;36.87
20930;BME280;21895;47.072;15.132;2023-03-15T09:25:18;96145.00;;;10.94;37.03
20930;BME280;21895;47.072;15.132;2023-03-15T09:27:45;96129.00;;;10.60;36.64
20930;BME280;21895;47.072;15.132;2023-03-15T09:30:13;96140.00;;;10.44;36.66
20930;BME280;21895;47.072;15.132;2023-03-15T09:32:40;96139.00;;;10.51;37.02
20930;BME280;21895;47.072;15.132;2023-03-15T09:35:11;96135.00;;;10.62;37.00
20930;BME280;21895;47.072;15.132;2023-03-15T09:37:38;96146.00;;;10.64;36.88
20930;BME280;21895;47.072;15.132;2023-03-15T09:40:06;96156.00;;;10.47;37.03
20930;BME280;21895;47.072;15.132;2023-03-15T09:46:24;96161.00;;;10.12;37.66
20930;BME280;21895;47.072;15.132;2023-03-15T09:49:14;96175.00;;;10.36;38.00
20930;BME280;21895;47.072;15.132;2023-03-15T09:53:02;96182.00;;;9.93;37.32
20930;BME280;21895;47.072;15.132;2023-03-15T09:55:31;96195.00;;;9.84;37.90
20930;BME280;21895;47.072;15.132;2023-03-15T09:58:04;96188.00;;;9.82;37.53
20930;BME280;21895;47.072;15.132;2023-03-15T10:00:48;96195.00;;;10.29;38.12
20930;BME280;21895;47.072;15.132;2023-03-15T10:04:11;96198.00;;;10.52;37.56
20930;BME280;21895;47.072;15.132;2023-03-15T10:06:46;96200.00;;;10.83;36.63
20930;BME280;21895;47.072;15.132;2023-03-15T10:09:21;96196.00;;;10.96;36.63
20930;BME280;21895;47.072;15.132;2023-03-15T10:12:35;96197.00;;;11.44;36.23
20930;BME280;21895;47.072;15.132;2023-03-15T10:15:35;96208.00;;;11.12;34.99
20930;BME280;21895;47.072;15.132;2023-03-15T10:18:41;96210.00;;;10.44;35.83
20930;BME280;21895;47.072;15.132;2023-03-15T10:22:57;96220.00;;;10.45;36.45
20930;BME280;21895;47.072;15.132;2023-03-15T10:25:31;96210.00;;;11.67;34.67
20930;BME280;21895;47.072;15.132;2023-03-15T10:28:23;96218.00;;;11.94;35.18
20930;BME280;21895;47.072;15.132;2023-03-15T10:30:51;96216.00;;;11.95;34.62
20930;BME280;21895;47.072;15.132;2023-03-15T10:33:36;96222.00;;;12.12;33.53
20930;BME280;21895;47.072;15.132;2023-03-15T10:36:18;96225.00;;;11.58;32.27
20930;BME280;21895;47.072;15.132;2023-03-15T10:38:46;96229.00;;;11.42;33.41
20930;BME280;21895;47.072;15.132;2023-03-15T10:41:37;96239.00;;;11.38;32.64
20930;BME280;21895;47.072;15.132;2023-03-15T10:44:24;96228.00;;;11.41;32.69
20930;BME280;21895;47.072;15.132;2023-03-15T10:47:12;96243.00;;;11.47;32.17
20930;BME280;21895;47.072;15.132;2023-03-15T10:49:58;96234.00;;;11.37;31.89
20930;BME280;21895;47.072;15.132;2023-03-15T10:52:38;96242.00;;;10.69;32.52
20930;BME280;21895;47.072;15.132;2023-03-15T10:55:13;96249.00;;;10.18;33.54
20930;BME280;21895;47.072;15.132;2023-03-15T11:01:29;96258.00;;;9.59;32.57
20930;BME280;21895;47.072;15.132;2023-03-15T11:04:33;96264.00;;;9.45;33.06
20930;BME280;21895;47.072;15.132;2023-03-15T11:07:03;96268.00;;;9.16;32.57
20930;BME280;21895;47.072;15.132;2023-03-15T11:09:58;96258.00;;;9.22;32.43
20930;BME280;21895;47.072;15.132;2023-03-15T11:12:28;96271.00;;;9.39;32.86
20930;BME280;21895;47.072;15.132;2023-03-15T11:15:10;96280.00;;;9.38;32.16
20930;BME280;21895;47.072;15.132;2023-03-15T11:17:51;96266.00;;;9.57;32.46
20930;BME280;21895;47.072;15.132;2023-03-15T11:20:34;96258.00;;;9.30;32.85
20930;BME280;21895;47.072;15.132;2023-03-15T11:23:27;96269.00;;;9.42;32.54
20930;BME280;21895;47.072;15.132;2023-03-15T11:25:55;96286.00;;;9.51;30.65
20930;BME280;21895;47.072;15.132;2023-03-15T11:28:29;96277.00;;;9.50;31.08
20930;BME280;21895;47.072;15.132;2023-03-15T11:30:58;96292.00;;;9.63;32.46
20930;BME280;21895;47.072;15.132;2023-03-15T11:34:10;96305.00;;;9.90;30.92
20930;BME280;21895;47.072;15.132;2023-03-15T11:36:43;96294.00;;;9.91;30.92
20930;BME280;21895;47.072;15.132;2023-03-15T11:39:14;96298.00;;;10.15;31.76
20930;BME280;21895;47.072;15.132;2023-03-15T11:41:56;96306.00;;;10.30;30.28
20930;BME280;21895;47.072;15.132;2023-03-15T11:45:22;96309.00;;;9.96;29.27
20930;BME280;21895;47.072;15.132;2023-03-15T11:48:06;96283.00;;;8.79;30.11
20930;BME280;21895;47.072;15.132;2023-03-15T11:50:36;96321.00;;;8.89;31.56
20930;BME280;21895;47.072;15.132;2023-03-15T11:53:07;96317.00;;;8.97;31.51
20930;BME280;21895;47.072;15.132;2023-03-15T11:55:36;96310.00;;;8.66;32.03
20930;BME280;21895;47.072;15.132;2023-03-15T11:58:35;96318.00;;;8.72;32.22
20930;BME280;21895;47.072;15.132;2023-03-15T12:01:10;96304.00;;;8.85;31.76
20930;BME280;21895;47.072;15.132;2023-03-15T12:03:49;96312.00;;;9.02;31.50
20930;BME280;21895;47.072;15.132;2023-03-15T12:06:36;96322.00;;;8.44;31.04
20930;BME280;21895;47.072;15.132;2023-03-15T12:09:39;96302.00;;;8.19;32.32
20930;BME280;21895;47.072;15.132;2023-03-15T12:14:34;96319.00;;;8.07;32.54
20930;BME280;21895;47.072;15.132;2023-03-15T12:18:02;96326.00;;;8.57;32.02
20930;BME280;21895;47.072;15.132;2023-03-15T12:20:40;96314.00;;;8.73;30.94
20930;BME280;21895;47.072;15.132;2023-03-15T12:24:36;96331.00;;;8.44;31.01
20930;BME280;21895;47.072;15.132;2023-03-15T12:27:22;96314.00;;;8.21;31.16
20930;BME280;21895;47.072;15.132;2023-03-15T12:29:59;96329.00;;;8.52;31.75
20930;BME280;21895;47.072;15.132;2023-03-15T12:32:28;96322.00;;;8.66;31.37
20930;BME280;21895;47.072;15.132;2023-03-15T12:35:02;96329.00;;;8.63;31.37
20930;BME280;21895;47.072;15.132;2023-03-15T12:37:46;96331.00;;;8.79;30.49
20930;BME280;21895;47.072;15.132;2023-03-15T12:40:57;96323.00;;;8.87;30.62
20930;BME280;21895;47.072;15.132;2023-03-15T12:45:45;96326.00;;;9.11;30.43
20930;BME280;21895;47.072;15.132;2023-03-15T12:48:21;96334.00;;;8.57;31.03
20930;BME280;21895;47.072;15.132;2023-03-15T12:50:53;96339.00;;;8.54;31.12
20930;BME280;21895;47.072;15.132;2023-03-15T12:53:37;96333.00;;;8.65;31.09
20930;BME280;21895;47.072;15.132;2023-03-15T12:57:59;96335.00;;;9.20;29.85
20930;BME280;21895;47.072;15.132;2023-03-15T13:00:29;96327.00;;;9.01;29.50
20930;BME280;21895;47.072;15.132;2023-03-15T13:03:40;96319.00;;;8.84;30.39
20930;BME280;21895;47.072;15.132;2023-03-15T13:14:52;96334.00;;;9.39;29.55
20930;BME280;21895;47.072;15.132;2023-03-15T13:19:49;96328.00;;;9.35;29.90
20930;BME280;21895;47.072;15.132;2023-03-15T13:22:51;96353.00;;;8.24;30.95
20930;BME280;21895;47.072;15.132;2023-03-15T13:26:28;96346.00;;;8.63;31.09
20930;BME280;21895;47.072;15.132;2023-03-15T13:29:15;96363.00;;;8.64;29.92
20930;BME280;21895;47.072;15.132;2023-03-15T13:31:45;96351.00;;;8.23;31.27
20930;BME280;21895;47.072;15.132;2023-03-15T13:34:20;96338.00;;;8.33;30.56
20930;BME280;21895;47.072;15.132;2023-03-15T13:36:57;96357.00;;;7.94;30.92
20930;BME280;21895;47.072;15.132;2023-03-15T13:39:27;96345.00;;;8.26;31.06
20930;BME280;21895;47.072;15.132;2023-03-15T13:42:16;96346.00;;;8.13;30.55
20930;BME280;21895;47.072;15.132;2023-03-15T13:44:43;96356.00;;;8.14;30.64
20930;BME280;21895;47.072;15.132;2023-03-15T13:47:19;96394.00;;;8.01;30.35
20930;BME280;21895;47.072;15.132;2023-03-15T13:49:51;96376.00;;;7.65;31.12
20930;BME280;21895;47.072;15.132;2023-03-15T13:52:18;96365.00;;;7.91;31.58
20930;BME280;21895;47.072;15.132;2023-03-15T13:54:45;96365.00;;;7.73;29.55
20930;BME280;21895;47.072;15.132;2023-03-15T13:57:19;96367.00;;;7.96;30.13
20930;BME280;21895;47.072;15.132;2023-03-15T14:00:56;96360.00;;;8.45;30.18